sensor_id;sensor_type;location;lat;lon;timestamp;P1;durP1;ratioP1;P2;durP2;ratioP2
9964;SDS011;5023;53.554;9.964;2022-10-23T00:02:53;25.92;;;19.35;;
9964;SDS011;5023;53.554;9.964;2022-10-23T00:07:58;23.70;;;17.88;;
9964;SDS011;5023;53.554;9.964;2022-10-23T00:13:00;25.77;;;19.25;;
9964;SDS011;5023;53.554;9.964;2022-10-23T00:18:03;27.75;;;22.38;;
9964;SDS011;5023;53.554;9.964;2022-10-23T00:23:06;24.63;;;18.80;;
9964;SDS011;5023;53.554;9.964;2022-10-23T00:28:08;23.77;;;16.90;;
9964;SDS011;5023;53.554;9.964;2022-10-23T00:33:11;21.33;;;16.77;;
9964;SDS011;5023;53.554;9.964;2022-10-23T00:38:14;21.90;;;16.35;;
9964;SDS011;5023;53.554;9.964;2022-10-23T00:43:17;20.52;;;16.98;;
9964;SDS011;5023;53.554;9.964;2022-10-23T00:48:19;23.15;;;17.10;;
9964;SDS011;5023;53.554;9.964;2022-10-23T00:53:23;20.30;;;16.33;;
9964;SDS011;5023;53.554;9.964;2022-10-23T00:58:25;20.35;;;16.05;;
9964;SDS011;5023;53.554;9.964;2022-10-23T01:03:27;23.98;;;18.80;;
9964;SDS011;5023;53.554;9.964;2022-10-23T01:08:33;27.08;;;18.95;;
9964;SDS011;5023;53.554;9.964;2022-10-23T01:13:41;32.85;;;22.65;;
9964;SDS011;5023;53.554;9.964;2022-10-23T01:18:51;32.45;;;24.20;;
9964;SDS011;5023;53.554;9.964;2022-10-23T01:24:02;28.40;;;21.63;;
9964;SDS011;5023;53.554;9.964;2022-10-23T01:29:14;27.80;;;19.20;;
9964;SDS011;5023;53.554;9.964;2022-10-23T01:34:22;26.75;;;19.02;;
9964;SDS011;5023;53.554;9.964;2022-10-23T01:39:31;20.67;;;17.15;;
9964;SDS011;5023;53.554;9.964;2022-10-23T01:44:40;19.25;;;15.13;;
9964;SDS011;5023;53.554;9.964;2022-10-23T01:49:45;16.30;;;14.55;;
9964;SDS011;5023;53.554;9.964;2022-10-23T01:54:49;19.70;;;15.77;;
9964;SDS011;5023;53.554;9.964;2022-10-23T01:59:55;16.05;;;14.05;;
9964;SDS011;5023;53.554;9.964;2022-10-23T02:05:02;22.55;;;16.90;;
9964;SDS011;5023;53.554;9.964;2022-10-23T02:10:08;18.38;;;15.35;;
9964;SDS011;5023;53.554;9.964;2022-10-23T02:15:13;22.20;;;17.95;;
9964;SDS011;5023;53.554;9.964;2022-10-23T02:20:22;22.83;;;17.10;;
9964;SDS011;5023;53.554;9.964;2022-10-23T02:25:31;19.75;;;15.27;;
9964;SDS011;5023;53.554;9.964;2022-10-23T02:30:37;20.10;;;14.18;;
9964;SDS011;5023;53.554;9.964;2022-10-23T02:35:44;18.92;;;13.95;;
9964;SDS011;5023;53.554;9.964;2022-10-23T02:40:47;17.67;;;13.50;;
9964;SDS011;5023;53.554;9.964;2022-10-23T02:45:52;17.50;;;14.00;;
9964;SDS011;5023;53.554;9.964;2022-10-23T02:51:01;19.65;;;14.57;;
9964;SDS011;5023;53.554;9.964;2022-10-23T02:56:11;17.92;;;13.35;;
9964;SDS011;5023;53.554;9.964;2022-10-23T03:01:25;18.42;;;13.48;;
9964;SDS011;5023;53.554;9.964;2022-10-23T03:06:29;17.88;;;12.45;;
9964;SDS011;5023;53.554;9.964;2022-10-23T03:11:32;15.85;;;12.82;;
9964;SDS011;5023;53.554;9.964;2022-10-23T03:16:36;14.10;;;12.35;;
9964;SDS011;5023;53.554;9.964;2022-10-23T03:21:38;15.25;;;12.38;;
9964;SDS011;5023;53.554;9.964;2022-10-23T03:26:40;14.13;;;12.45;;
9964;SDS011;5023;53.554;9.964;2022-10-23T03:31:43;15.05;;;12.23;;
9964;SDS011;5023;53.554;9.964;2022-10-23T03:36:45;17.63;;;13.32;;
9964;SDS011;5023;53.554;9.964;2022-10-23T03:41:47;14.52;;;12.57;;
9964;SDS011;5023;53.554;9.964;2022-10-23T03:46:51;17.08;;;12.60;;
9964;SDS011;5023;53.554;9.964;2022-10-23T03:51:53;13.15;;;10.77;;
9964;SDS011;5023;53.554;9.964;2022-10-23T03:56:55;14.93;;;12.68;;
9964;SDS011;5023;53.554;9.964;2022-10-23T04:01:58;16.75;;;13.73;;
9964;SDS011;5023;53.554;9.964;2022-10-23T04:07:00;14.85;;;12.65;;
9964;SDS011;5023;53.554;9.964;2022-10-23T04:12:03;16.60;;;13.05;;
9964;SDS011;5023;53.554;9.964;2022-10-23T04:17:07;13.30;;;11.43;;
9964;SDS011;5023;53.554;9.964;2022-10-23T04:22:09;13.38;;;10.95;;
9964;SDS011;5023;53.554;9.964;2022-10-23T04:27:11;11.52;;;10.27;;
9964;SDS011;5023;53.554;9.964;2022-10-23T04:32:14;14.02;;;10.48;;
9964;SDS011;5023;53.554;9.964;2022-10-23T04:37:16;13.88;;;10.25;;
9964;SDS011;5023;53.554;9.964;2022-10-23T04:42:19;11.68;;;10.23;;
9964;SDS011;5023;53.554;9.964;2022-10-23T04:47:22;11.95;;;9.55;;
9964;SDS011;5023;53.554;9.964;2022-10-23T04:52:24;12.05;;;10.05;;
9964;SDS011;5023;53.554;9.964;2022-10-23T04:57:26;12.55;;;10.18;;
9964;SDS011;5023;53.554;9.964;2022-10-23T05:02:30;12.35;;;9.55;;
9964;SDS011;5023;53.554;9.964;2022-10-23T05:07:33;11.52;;;9.57;;
9964;SDS011;5023;53.554;9.964;2022-10-23T05:12:35;10.55;;;9.45;;
9964;SDS011;5023;53.554;9.964;2022-10-23T05:17:39;10.05;;;8.77;;
9964;SDS011;5023;53.554;9.964;2022-10-23T05:22:43;10.98;;;9.30;;
9964;SDS011;5023;53.554;9.964;2022-10-23T05:27:46;11.10;;;8.50;;
9964;SDS011;5023;53.554;9.964;2022-10-23T05:32:49;16.27;;;13.52;;
9964;SDS011;5023;53.554;9.964;2022-10-23T05:37:51;12.88;;;9.88;;
9964;SDS011;5023;53.554;9.964;2022-10-23T05:42:55;13.13;;;9.85;;
9964;SDS011;5023;53.554;9.964;2022-10-23T05:48:00;13.68;;;10.38;;
9964;SDS011;5023;53.554;9.964;2022-10-23T05:53:02;11.52;;;9.77;;
9964;SDS011;5023;53.554;9.964;2022-10-23T05:58:04;13.52;;;10.00;;
9964;SDS011;5023;53.554;9.964;2022-10-23T06:03:07;12.65;;;10.40;;
9964;SDS011;5023;53.554;9.964;2022-10-23T06:08:09;12.82;;;10.20;;
9964;SDS011;5023;53.554;9.964;2022-10-23T06:13:11;11.80;;;10.50;;
9964;SDS011;5023;53.554;9.964;2022-10-23T06:18:15;11.50;;;10.32;;
9964;SDS011;5023;53.554;9.964;2022-10-23T06:23:17;11.73;;;10.52;;
9964;SDS011;5023;53.554;9.964;2022-10-23T06:28:19;10.93;;;9.82;;
9964;SDS011;5023;53.554;9.964;2022-10-23T06:33:22;10.68;;;9.52;;
9964;SDS011;5023;53.554;9.964;2022-10-23T06:38:24;10.27;;;7.80;;
9964;SDS011;5023;53.554;9.964;2022-10-23T06:43:26;9.25;;;8.35;;
9964;SDS011;5023;53.554;9.964;2022-10-23T06:48:29;9.18;;;8.02;;
9964;SDS011;5023;53.554;9.964;2022-10-23T06:53:32;9.43;;;8.48;;
9964;SDS011;5023;53.554;9.964;2022-10-23T06:58:36;30.92;;;25.00;;
9964;SDS011;5023;53.554;9.964;2022-10-23T07:03:40;11.30;;;10.20;;
9964;SDS011;5023;53.554;9.964;2022-10-23T07:08:42;10.65;;;9.55;;
9964;SDS011;5023;53.554;9.964;2022-10-23T07:13:44;12.85;;;9.43;;
9964;SDS011;5023;53.554;9.964;2022-10-23T07:18:48;13.68;;;10.30;;
9964;SDS011;5023;53.554;9.964;2022-10-23T07:23:57;12.02;;;10.20;;
9964;SDS011;5023;53.554;9.964;2022-10-23T07:29:00;14.10;;;9.98;;
9964;SDS011;5023;53.554;9.964;2022-10-23T07:34:03;11.35;;;10.18;;
9964;SDS011;5023;53.554;9.964;2022-10-23T07:39:06;14.27;;;12.88;;
9964;SDS011;5023;53.554;9.964;2022-10-23T07:44:09;15.13;;;11.93;;
9964;SDS011;5023;53.554;9.964;2022-10-23T07:49:12;13.88;;;12.40;;
9964;SDS011;5023;53.554;9.964;2022-10-23T07:54:14;12.77;;;10.98;;
9964;SDS011;5023;53.554;9.964;2022-10-23T07:59:16;10.38;;;9.35;;
9964;SDS011;5023;53.554;9.964;2022-10-23T08:04:19;10.95;;;9.13;;
9964;SDS011;5023;53.554;9.964;2022-10-23T08:09:22;10.00;;;9.00;;
9964;SDS011;5023;53.554;9.964;2022-10-23T08:14:24;8.70;;;7.90;;
9964;SDS011;5023;53.554;9.964;2022-10-23T08:19:27;10.18;;;8.48;;
9964;SDS011;5023;53.554;9.964;2022-10-23T08:24:29;8.35;;;7.55;;
9964;SDS011;5023;53.554;9.964;2022-10-23T08:29:31;9.13;;;7.57;;
9964;SDS011;5023;53.554;9.964;2022-10-23T08:34:35;8.43;;;7.35;;
9964;SDS011;5023;53.554;9.964;2022-10-23T08:39:37;10.65;;;7.70;;
9964;SDS011;5023;53.554;9.964;2022-10-23T08:44:42;7.75;;;6.75;;
9964;SDS011;5023;53.554;9.964;2022-10-23T08:49:52;13.00;;;8.77;;
9964;SDS011;5023;53.554;9.964;2022-10-23T08:55:00;7.75;;;6.95;;
9964;SDS011;5023;53.554;9.964;2022-10-23T09:00:10;13.57;;;8.57;;
9964;SDS011;5023;53.554;9.964;2022-10-23T09:05:17;7.37;;;6.60;;
9964;SDS011;5023;53.554;9.964;2022-10-23T09:10:28;9.63;;;6.75;;
9964;SDS011;5023;53.554;9.964;2022-10-23T09:15:45;8.90;;;6.00;;
9964;SDS011;5023;53.554;9.964;2022-10-23T09:20:51;7.00;;;5.93;;
9964;SDS011;5023;53.554;9.964;2022-10-23T09:25:54;7.30;;;6.30;;
9964;SDS011;5023;53.554;9.964;2022-10-23T09:31:04;8.32;;;6.32;;
9964;SDS011;5023;53.554;9.964;2022-10-23T09:36:19;9.88;;;6.78;;
9964;SDS011;5023;53.554;9.964;2022-10-23T09:41:24;7.32;;;6.55;;
9964;SDS011;5023;53.554;9.964;2022-10-23T09:46:36;15.93;;;14.38;;
9964;SDS011;5023;53.554;9.964;2022-10-23T09:51:40;11.68;;;7.88;;
9964;SDS011;5023;53.554;9.964;2022-10-23T09:57:03;9.77;;;6.60;;
9964;SDS011;5023;53.554;9.964;2022-10-23T10:02:25;8.13;;;5.90;;
9964;SDS011;5023;53.554;9.964;2022-10-23T10:07:30;6.30;;;5.43;;
9964;SDS011;5023;53.554;9.964;2022-10-23T10:12:37;12.05;;;5.88;;
9964;SDS011;5023;53.554;9.964;2022-10-23T10:17:46;12.40;;;6.82;;
9964;SDS011;5023;53.554;9.964;2022-10-23T10:23:00;13.68;;;5.70;;
9964;SDS011;5023;53.554;9.964;2022-10-23T10:28:14;8.65;;;5.30;;
9964;SDS011;5023;53.554;9.964;2022-10-23T10:33:29;9.93;;;6.35;;
9964;SDS011;5023;53.554;9.964;2022-10-23T10:38:44;7.35;;;5.00;;
9964;SDS011;5023;53.554;9.964;2022-10-23T10:43:53;6.47;;;5.85;;
9964;SDS011;5023;53.554;9.964;2022-10-23T10:49:03;7.57;;;5.35;;
9964;SDS011;5023;53.554;9.964;2022-10-23T10:54:17;5.88;;;5.30;;
9964;SDS011;5023;53.554;9.964;2022-10-23T10:59:26;9.85;;;5.40;;
9964;SDS011;5023;53.554;9.964;2022-10-23T11:04:32;8.60;;;5.68;;
9964;SDS011;5023;53.554;9.964;2022-10-23T11:09:42;9.60;;;6.80;;
9964;SDS011;5023;53.554;9.964;2022-10-23T11:14:44;8.65;;;6.10;;
9964;SDS011;5023;53.554;9.964;2022-10-23T11:19:47;8.60;;;6.03;;
9964;SDS011;5023;53.554;9.964;2022-10-23T11:30:32;7.97;;;5.28;;
9964;SDS011;5023;53.554;9.964;2022-10-23T11:35:52;6.57;;;5.03;;
9964;SDS011;5023;53.554;9.964;2022-10-23T11:41:03;6.38;;;5.47;;
9964;SDS011;5023;53.554;9.964;2022-10-23T11:46:10;6.65;;;5.25;;
9964;SDS011;5023;53.554;9.964;2022-10-23T11:51:26;5.63;;;4.55;;
9964;SDS011;5023;53.554;9.964;2022-10-23T11:56:32;8.10;;;4.35;;
9964;SDS011;5023;53.554;9.964;2022-10-23T12:01:35;9.00;;;6.63;;
9964;SDS011;5023;53.554;9.964;2022-10-23T12:06:42;6.22;;;4.82;;
9964;SDS011;5023;53.554;9.964;2022-10-23T12:11:48;4.97;;;4.47;;
9964;SDS011;5023;53.554;9.964;2022-10-23T12:17:02;4.45;;;3.58;;
9964;SDS011;5023;53.554;9.964;2022-10-23T12:22:33;5.22;;;3.97;;
9964;SDS011;5023;53.554;9.964;2022-10-23T12:27:44;5.35;;;4.50;;
9964;SDS011;5023;53.554;9.964;2022-10-23T12:33:00;6.18;;;4.40;;
9964;SDS011;5023;53.554;9.964;2022-10-23T12:38:12;6.85;;;5.13;;
9964;SDS011;5023;53.554;9.964;2022-10-23T12:43:21;10.40;;;5.15;;
9964;SDS011;5023;53.554;9.964;2022-10-23T12:48:26;7.63;;;5.97;;
9964;SDS011;5023;53.554;9.964;2022-10-23T12:53:31;6.55;;;5.00;;
9964;SDS011;5023;53.554;9.964;2022-10-23T12:58:34;6.88;;;5.40;;
9964;SDS011;5023;53.554;9.964;2022-10-23T13:03:37;7.22;;;4.65;;
9964;SDS011;5023;53.554;9.964;2022-10-23T13:08:40;6.90;;;5.00;;
9964;SDS011;5023;53.554;9.964;2022-10-23T13:13:46;9.07;;;5.53;;
9964;SDS011;5023;53.554;9.964;2022-10-23T13:18:49;11.15;;;5.03;;
9964;SDS011;5023;53.554;9.964;2022-10-23T13:23:52;6.15;;;4.85;;
9964;SDS011;5023;53.554;9.964;2022-10-23T13:28:57;7.07;;;5.90;;
9964;SDS011;5023;53.554;9.964;2022-10-23T13:34:17;8.00;;;5.05;;
9964;SDS011;5023;53.554;9.964;2022-10-23T13:39:24;8.05;;;5.85;;
9964;SDS011;5023;53.554;9.964;2022-10-23T13:44:28;5.70;;;4.97;;
9964;SDS011;5023;53.554;9.964;2022-10-23T13:49:36;9.60;;;6.18;;
9964;SDS011;5023;53.554;9.964;2022-10-23T13:54:39;8.43;;;5.68;;
9964;SDS011;5023;53.554;9.964;2022-10-23T13:59:44;5.40;;;4.90;;
9964;SDS011;5023;53.554;9.964;2022-10-23T14:04:46;6.07;;;4.25;;
9964;SDS011;5023;53.554;9.964;2022-10-23T14:09:48;6.25;;;4.13;;
9964;SDS011;5023;53.554;9.964;2022-10-23T14:14:51;7.53;;;3.70;;
9964;SDS011;5023;53.554;9.964;2022-10-23T14:19:53;7.57;;;3.92;;
9964;SDS011;5023;53.554;9.964;2022-10-23T14:24:55;6.82;;;4.80;;
9964;SDS011;5023;53.554;9.964;2022-10-23T14:29:59;4.63;;;3.45;;
9964;SDS011;5023;53.554;9.964;2022-10-23T14:35:01;7.25;;;5.47;;
9964;SDS011;5023;53.554;9.964;2022-10-23T14:40:06;5.68;;;3.70;;
9964;SDS011;5023;53.554;9.964;2022-10-23T14:45:10;8.55;;;3.92;;
9964;SDS011;5023;53.554;9.964;2022-10-23T14:50:13;6.22;;;4.15;;
9964;SDS011;5023;53.554;9.964;2022-10-23T14:55:16;6.03;;;4.30;;
9964;SDS011;5023;53.554;9.964;2022-10-23T15:00:19;5.88;;;4.40;;
9964;SDS011;5023;53.554;9.964;2022-10-23T15:05:21;10.45;;;7.63;;
9964;SDS011;5023;53.554;9.964;2022-10-23T15:10:27;6.68;;;4.00;;
9964;SDS011;5023;53.554;9.964;2022-10-23T15:15:30;6.75;;;4.03;;
9964;SDS011;5023;53.554;9.964;2022-10-23T15:20:32;8.27;;;4.75;;
9964;SDS011;5023;53.554;9.964;2022-10-23T15:25:34;6.55;;;5.45;;
9964;SDS011;5023;53.554;9.964;2022-10-23T15:30:41;7.05;;;4.97;;
9964;SDS011;5023;53.554;9.964;2022-10-23T15:35:44;6.32;;;5.00;;
9964;SDS011;5023;53.554;9.964;2022-10-23T15:40:47;7.85;;;5.28;;
9964;SDS011;5023;53.554;9.964;2022-10-23T15:45:50;5.97;;;4.68;;
9964;SDS011;5023;53.554;9.964;2022-10-23T15:50:53;8.00;;;4.55;;
9964;SDS011;5023;53.554;9.964;2022-10-23T15:55:56;7.85;;;4.20;;
9964;SDS011;5023;53.554;9.964;2022-10-23T16:01:01;5.60;;;4.63;;
9964;SDS011;5023;53.554;9.964;2022-10-23T16:06:05;11.68;;;9.35;;
9964;SDS011;5023;53.554;9.964;2022-10-23T16:11:11;7.55;;;4.93;;
9964;SDS011;5023;53.554;9.964;2022-10-23T16:16:16;9.68;;;5.80;;
9964;SDS011;5023;53.554;9.964;2022-10-23T16:21:19;6.28;;;5.63;;
9964;SDS011;5023;53.554;9.964;2022-10-23T16:26:23;5.65;;;5.05;;
9964;SDS011;5023;53.554;9.964;2022-10-23T16:31:28;68.10;;;37.17;;
9964;SDS011;5023;53.554;9.964;2022-10-23T16:36:30;9.82;;;6.82;;
9964;SDS011;5023;53.554;9.964;2022-10-23T16:41:32;9.27;;;7.30;;
9964;SDS011;5023;53.554;9.964;2022-10-23T16:46:37;10.45;;;5.72;;
9964;SDS011;5023;53.554;9.964;2022-10-23T16:51:39;6.90;;;4.18;;
9964;SDS011;5023;53.554;9.964;2022-10-23T16:56:41;12.02;;;9.70;;
9964;SDS011;5023;53.554;9.964;2022-10-23T17:01:45;7.40;;;6.03;;
9964;SDS011;5023;53.554;9.964;2022-10-23T17:06:48;8.18;;;4.72;;
9964;SDS011;5023;53.554;9.964;2022-10-23T17:11:50;8.27;;;5.45;;
9964;SDS011;5023;53.554;9.964;2022-10-23T17:16:55;21.85;;;14.80;;
9964;SDS011;5023;53.554;9.964;2022-10-23T17:21:58;17.63;;;13.23;;
9964;SDS011;5023;53.554;9.964;2022-10-23T17:27:00;10.70;;;7.15;;
9964;SDS011;5023;53.554;9.964;2022-10-23T17:32:06;13.07;;;9.43;;
9964;SDS011;5023;53.554;9.964;2022-10-23T17:37:08;15.88;;;8.70;;
9964;SDS011;5023;53.554;9.964;2022-10-23T17:42:12;11.07;;;8.07;;
9964;SDS011;5023;53.554;9.964;2022-10-23T17:47:15;8.10;;;6.05;;
9964;SDS011;5023;53.554;9.964;2022-10-23T17:52:17;8.30;;;7.03;;
9964;SDS011;5023;53.554;9.964;2022-10-23T17:57:19;13.30;;;6.43;;
9964;SDS011;5023;53.554;9.964;2022-10-23T18:02:23;8.35;;;5.40;;
9964;SDS011;5023;53.554;9.964;2022-10-23T18:07:25;9.00;;;6.40;;
9964;SDS011;5023;53.554;9.964;2022-10-23T18:12:27;5.35;;;4.85;;
9964;SDS011;5023;53.554;9.964;2022-10-23T18:17:31;7.97;;;5.85;;
9964;SDS011;5023;53.554;9.964;2022-10-23T18:22:40;5.05;;;4.25;;
9964;SDS011;5023;53.554;9.964;2022-10-23T18:27:43;4.97;;;4.47;;
9964;SDS011;5023;53.554;9.964;2022-10-23T18:32:46;5.22;;;4.38;;
9964;SDS011;5023;53.554;9.964;2022-10-23T18:37:48;10.07;;;5.50;;
9964;SDS011;5023;53.554;9.964;2022-10-23T18:42:50;8.30;;;5.25;;
9964;SDS011;5023;53.554;9.964;2022-10-23T18:47:54;12.02;;;7.88;;
9964;SDS011;5023;53.554;9.964;2022-10-23T18:52:56;10.25;;;8.07;;
9964;SDS011;5023;53.554;9.964;2022-10-23T18:57:59;16.73;;;10.82;;
9964;SDS011;5023;53.554;9.964;2022-10-23T19:03:06;11.88;;;7.88;;
9964;SDS011;5023;53.554;9.964;2022-10-23T19:08:28;6.05;;;4.88;;
9964;SDS011;5023;53.554;9.964;2022-10-23T19:13:30;6.32;;;5.63;;
9964;SDS011;5023;53.554;9.964;2022-10-23T19:18:37;8.60;;;5.05;;
9964;SDS011;5023;53.554;9.964;2022-10-23T19:23:42;8.65;;;6.97;;
9964;SDS011;5023;53.554;9.964;2022-10-23T19:28:45;7.78;;;5.57;;
9964;SDS011;5023;53.554;9.964;2022-10-23T19:33:50;6.72;;;4.93;;
9964;SDS011;5023;53.554;9.964;2022-10-23T19:38:54;5.25;;;4.82;;
9964;SDS011;5023;53.554;9.964;2022-10-23T19:43:56;5.43;;;4.90;;
9964;SDS011;5023;53.554;9.964;2022-10-23T19:49:01;6.05;;;5.07;;
9964;SDS011;5023;53.554;9.964;2022-10-23T19:54:04;9.35;;;5.25;;
9964;SDS011;5023;53.554;9.964;2022-10-23T19:59:06;7.32;;;5.00;;
9964;SDS011;5023;53.554;9.964;2022-10-23T20:04:10;6.03;;;4.97;;
9964;SDS011;5023;53.554;9.964;2022-10-23T20:09:12;7.90;;;5.60;;
9964;SDS011;5023;53.554;9.964;2022-10-23T20:14:14;17.20;;;12.15;;
9964;SDS011;5023;53.554;9.964;2022-10-23T20:19:18;9.05;;;7.40;;
9964;SDS011;5023;53.554;9.964;2022-10-23T20:24:20;10.43;;;8.23;;
9964;SDS011;5023;53.554;9.964;2022-10-23T20:29:22;7.55;;;6.15;;
9964;SDS011;5023;53.554;9.964;2022-10-23T20:34:26;7.03;;;5.32;;
9964;SDS011;5023;53.554;9.964;2022-10-23T20:39:28;5.07;;;4.40;;
9964;SDS011;5023;53.554;9.964;2022-10-23T20:44:32;8.30;;;4.53;;
9964;SDS011;5023;53.554;9.964;2022-10-23T20:49:36;7.13;;;4.15;;
9964;SDS011;5023;53.554;9.964;2022-10-23T20:54:38;9.85;;;4.88;;
9964;SDS011;5023;53.554;9.964;2022-10-23T20:59:40;6.63;;;4.88;;
9964;SDS011;5023;53.554;9.964;2022-10-23T21:04:45;6.68;;;4.53;;
9964;SDS011;5023;53.554;9.964;2022-10-23T21:09:52;6.88;;;4.90;;
9964;SDS011;5023;53.554;9.964;2022-10-23T21:14:54;7.70;;;4.80;;
9964;SDS011;5023;53.554;9.964;2022-10-23T21:20:00;9.07;;;4.72;;
9964;SDS011;5023;53.554;9.964;2022-10-23T21:25:02;6.32;;;4.90;;
9964;SDS011;5023;53.554;9.964;2022-10-23T21:30:06;5.20;;;3.88;;
9964;SDS011;5023;53.554;9.964;2022-10-23T21:35:10;6.40;;;3.88;;
9964;SDS011;5023;53.554;9.964;2022-10-23T21:40:16;5.07;;;2.90;;
9964;SDS011;5023;53.554;9.964;2022-10-23T21:45:18;4.45;;;2.67;;
9964;SDS011;5023;53.554;9.964;2022-10-23T21:50:22;3.05;;;2.75;;
9964;SDS011;5023;53.554;9.964;2022-10-23T21:55:24;3.95;;;2.70;;
9964;SDS011;5023;53.554;9.964;2022-10-23T22:00:27;2.58;;;2.38;;
9964;SDS011;5023;53.554;9.964;2022-10-23T22:05:30;2.35;;;2.03;;
9964;SDS011;5023;53.554;9.964;2022-10-23T22:10:33;3.10;;;2.10;;
9964;SDS011;5023;53.554;9.964;2022-10-23T22:15:35;4.05;;;1.80;;
9964;SDS011;5023;53.554;9.964;2022-10-23T22:20:39;1.70;;;1.60;;
9964;SDS011;5023;53.554;9.964;2022-10-23T22:25:41;2.38;;;2.20;;
9964;SDS011;5023;53.554;9.964;2022-10-23T22:30:43;1.88;;;1.75;;
9964;SDS011;5023;53.554;9.964;2022-10-23T22:35:46;3.65;;;1.67;;
9964;SDS011;5023;53.554;9.964;2022-10-23T22:40:49;1.90;;;1.80;;
9964;SDS011;5023;53.554;9.964;2022-10-23T22:45:51;1.85;;;1.70;;
9964;SDS011;5023;53.554;9.964;2022-10-23T22:50:54;10.70;;;5.82;;
9964;SDS011;5023;53.554;9.964;2022-10-23T22:55:56;15.95;;;10.82;;
9964;SDS011;5023;53.554;9.964;2022-10-23T23:01:00;4.93;;;3.88;;
9964;SDS011;5023;53.554;9.964;2022-10-23T23:06:06;4.40;;;4.00;;
9964;SDS011;5023;53.554;9.964;2022-10-23T23:11:10;2.88;;;2.47;;
9964;SDS011;5023;53.554;9.964;2022-10-23T23:16:17;5.05;;;3.35;;
9964;SDS011;5023;53.554;9.964;2022-10-23T23:21:28;4.30;;;3.90;;
9964;SDS011;5023;53.554;9.964;2022-10-23T23:26:31;4.35;;;3.00;;
9964;SDS011;5023;53.554;9.964;2022-10-23T23:31:33;4.93;;;2.63;;
9964;SDS011;5023;53.554;9.964;2022-10-23T23:36:39;3.97;;;2.83;;
9964;SDS011;5023;53.554;9.964;2022-10-23T23:41:41;3.20;;;2.47;;
9964;SDS011;5023;53.554;9.964;2022-10-23T23:46:44;2.90;;;2.55;;
9964;SDS011;5023;53.554;9.964;2022-10-23T23:51:47;3.15;;;2.85;;
9964;SDS011;5023;53.554;9.964;2022-10-23T23:56:49;4.82;;;3.10;;
